Time;durP1;ratioP1;P1;durP2;ratioP2;P2;SDS_P1;SDS_P2;PMS_P1;PMS_P2;Temp;Humidity;BMP_temperature;BMP_pressure;BME280_temperature;BME280_humidity;BME280_pressure;Samples;Min_cycle;Max_cycle;Signal;HPM_P1;HPM_P2
2023/04/28 00:00:51;;;;;;;10.07;5.07;;;11.40;91.10;;;;;;5036153;28;20022;-72
2023/04/28 00:03:16;;;;;;;11.32;5.20;;;11.50;91.10;;;;;;5035971;28;20025;-73
2023/04/28 00:05:42;;;;;;;11.65;5.03;;;11.50;91.20;;;;;;5038038;28;20068;-72
2023/04/28 00:08:08;;;;;;;10.65;4.97;;;11.40;91.20;;;;;;5036067;28;20068;-72
2023/04/28 00:10:33;;;;;;;14.05;4.82;;;11.40;91.20;;;;;;5035151;28;20042;-71
2023/04/28 00:12:59;;;;;;;12.65;5.15;;;11.40;91.60;;;;;;5034785;28;20025;-73
2023/04/28 00:15:25;;;;;;;7.45;4.05;;;11.40;91.50;;;;;;5035680;28;20159;-71
2023/04/28 00:17:51;;;;;;;9.93;4.43;;;11.40;91.50;;;;;;5037123;28;20044;-73
2023/04/28 00:20:16;;;;;;;9.68;4.38;;;11.30;91.40;;;;;;5035751;28;20485;-71
2023/04/28 00:22:42;;;;;;;8.43;4.35;;;11.30;91.40;;;;;;5035715;28;20477;-72
2023/04/28 00:25:08;;;;;;;11.40;5.15;;;11.30;91.60;;;;;;5035863;28;20057;-73
2023/04/28 00:27:34;;;;;;;9.65;4.72;;;11.30;91.70;;;;;;5036464;28;20100;-72
2023/04/28 00:30:00;;;;;;;11.25;5.00;;;11.20;91.60;;;;;;5036322;28;20033;-72
2023/04/28 00:32:26;;;;;;;9.65;4.65;;;11.20;91.70;;;;;;5038030;28;20032;-76
2023/04/28 00:34:52;;;;;;;10.90;4.78;;;11.20;91.70;;;;;;5035043;28;20135;-74
2023/04/28 00:37:21;;;;;;;12.00;5.05;;;11.20;91.60;;;;;;5034503;28;20470;-71
2023/04/28 00:39:47;;;;;;;11.40;5.25;;;11.20;91.40;;;;;;5035586;28;20044;-72
2023/04/28 00:42:16;;;;;;;13.25;5.43;;;11.20;91.40;;;;;;5050474;28;20028;-74
2023/04/28 00:44:41;;;;;;;8.90;4.53;;;11.30;91.50;;;;;;5050906;28;20052;-74
2023/04/28 00:47:10;;;;;;;11.68;5.25;;;11.30;91.30;;;;;;5050077;28;20114;-71
2023/04/28 00:49:36;;;;;;;9.80;4.53;;;11.30;91.20;;;;;;5048579;28;20049;-72
2023/04/28 00:52:05;;;;;;;11.35;4.60;;;11.30;91.10;;;;;;5049780;28;20013;-72
2023/04/28 00:54:33;;;;;;;10.95;4.65;;;11.30;91.30;;;;;;5050324;28;20017;-72
2023/04/28 00:57:02;;;;;;;10.43;4.65;;;11.30;91.30;;;;;;5050155;28;20017;-73
2023/04/28 00:59:28;;;;;;;11.32;4.82;;;11.30;91.20;;;;;;5049791;28;20086;-75
2023/04/28 01:01:55;;;;;;;10.90;4.50;;;11.30;91.40;;;;;;5048404;28;20021;-72
2023/04/28 01:04:21;;;;;;;16.42;4.80;;;11.30;91.40;;;;;;5050220;28;20056;-74
2023/04/28 01:06:48;;;;;;;9.48;4.47;;;11.30;91.30;;;;;;5050054;28;20017;-72
2023/04/28 01:09:13;;;;;;;8.80;4.47;;;11.30;91.20;;;;;;5050017;28;20077;-72
2023/04/28 01:11:39;;;;;;;10.70;4.57;;;11.30;91.30;;;;;;5046707;28;20041;-71
2023/04/28 01:14:04;;;;;;;10.80;5.15;;;11.30;91.50;;;;;;5047635;28;20029;-73
2023/04/28 01:16:31;;;;;;;11.25;4.85;;;11.30;92.00;;;;;;5034832;28;20031;-75
2023/04/28 01:18:58;;;;;;;10.23;5.10;;;11.20;92.30;;;;;;5034819;28;20021;-71
2023/04/28 01:21:31;;;;;;;8.85;4.95;;;11.20;92.60;;;;;;5033253;28;20033;-72
2023/04/28 01:23:58;;;;;;;11.27;4.55;;;11.20;92.60;;;;;;5047129;28;20029;-74
2023/04/28 01:26:24;;;;;;;12.15;5.35;;;11.20;92.70;;;;;;5049536;28;20145;-72
2023/04/28 01:28:49;;;;;;;12.70;5.45;;;11.20;92.80;;;;;;5043604;28;20458;-71
2023/04/28 01:31:15;;;;;;;11.90;4.63;;;11.20;92.90;;;;;;5033997;28;20045;-73
2023/04/28 01:33:41;;;;;;;9.90;5.15;;;11.10;92.70;;;;;;5036238;28;20028;-73
2023/04/28 01:36:07;;;;;;;10.20;4.57;;;11.10;92.70;;;;;;5034095;28;20104;-72
2023/04/28 01:38:33;;;;;;;10.50;4.72;;;11.10;92.70;;;;;;5034371;28;20165;-72
2023/04/28 01:40:59;;;;;;;9.77;4.95;;;11.10;92.90;;;;;;5034171;28;20032;-72
2023/04/28 01:43:24;;;;;;;10.35;4.93;;;11.10;92.90;;;;;;5046541;28;20025;-74
2023/04/28 01:45:50;;;;;;;9.23;4.53;;;11.10;93.00;;;;;;5047258;28;20021;-75
2023/04/28 01:48:16;;;;;;;9.23;5.03;;;11.10;93.10;;;;;;5048899;28;20111;-70
2023/04/28 01:50:41;;;;;;;12.02;5.20;;;11.10;93.20;;;;;;5049118;28;20040;-76
2023/04/28 01:53:07;;;;;;;10.98;4.72;;;11.10;93.20;;;;;;5034056;28;20030;-72
2023/04/28 01:55:33;;;;;;;9.25;4.40;;;11.10;93.30;;;;;;5035221;28;20375;-74
2023/04/28 01:57:58;;;;;;;9.27;4.60;;;11.10;93.30;;;;;;5033933;28;20079;-75
2023/04/28 02:00:24;;;;;;;12.13;5.05;;;11.10;93.40;;;;;;5038903;28;20033;-73
2023/04/28 02:02:50;;;;;;;10.48;5.60;;;11.10;93.40;;;;;;5047984;28;20029;-72
2023/04/28 02:05:15;;;;;;;12.20;5.15;;;11.10;93.40;;;;;;5049135;28;20025;-72
2023/04/28 02:07:41;;;;;;;10.98;5.38;;;11.10;93.50;;;;;;5039248;28;20026;-72
2023/04/28 02:10:08;;;;;;;11.98;5.43;;;11.20;93.70;;;;;;5033966;28;20063;-72
2023/04/28 02:12:33;;;;;;;10.23;4.95;;;11.10;93.70;;;;;;5033695;28;20044;-72
2023/04/28 02:15:06;;;;;;;11.60;4.95;;;11.10;93.90;;;;;;5033992;28;20807;-74
2023/04/28 02:17:31;;;;;;;10.00;5.05;;;11.10;94.10;;;;;;5034872;28;20025;-72
2023/04/28 02:19:57;;;;;;;10.77;4.68;;;11.10;94.20;;;;;;5034978;28;20021;-71
2023/04/28 02:22:23;;;;;;;10.30;4.97;;;11.00;94.20;;;;;;5033791;28;20072;-71
2023/04/28 02:24:48;;;;;;;11.38;4.95;;;11.00;94.50;;;;;;5033769;28;20021;-71
2023/04/28 02:27:14;;;;;;;8.07;4.50;;;10.90;94.80;;;;;;5033207;28;20386;-72
2023/04/28 02:29:40;;;;;;;10.90;5.15;;;10.90;95.20;;;;;;5035893;28;20092;-71
2023/04/28 02:32:06;;;;;;;12.05;4.88;;;10.80;95.30;;;;;;5019629;28;20038;-72
2023/04/28 02:34:32;;;;;;;11.73;5.35;;;10.80;95.50;;;;;;5033779;28;20025;-71
2023/04/28 02:36:58;;;;;;;12.07;5.28;;;10.70;95.80;;;;;;5033596;28;20029;-72
2023/04/28 02:39:25;;;;;;;12.02;5.07;;;10.60;95.80;;;;;;5033490;28;20022;-72
2023/04/28 02:41:52;;;;;;;11.18;4.95;;;10.60;95.70;;;;;;5044568;28;20100;-71
2023/04/28 02:44:17;;;;;;;11.15;4.72;;;10.60;95.80;;;;;;5049101;28;20028;-72
2023/04/28 02:46:43;;;;;;;10.18;4.78;;;10.60;96.10;;;;;;5040255;28;20017;-73
2023/04/28 02:49:09;;;;;;;9.18;5.13;;;10.60;95.70;;;;;;5033260;28;20401;-73
2023/04/28 02:51:34;;;;;;;9.35;4.32;;;10.60;95.80;;;;;;5033370;28;20020;-74
2023/04/28 02:54:00;;;;;;;12.43;4.80;;;10.60;95.80;;;;;;5034334;28;20727;-75
2023/04/28 02:56:26;;;;;;;9.77;5.05;;;10.60;95.70;;;;;;5045165;28;20033;-73
2023/04/28 02:58:51;;;;;;;10.63;4.88;;;10.60;95.60;;;;;;5047049;28;20492;-73
2023/04/28 03:01:17;;;;;;;11.07;5.10;;;10.60;95.70;;;;;;5050609;28;20025;-72
2023/04/28 03:03:43;;;;;;;10.32;4.70;;;10.60;95.60;;;;;;5034679;28;20038;-72
2023/04/28 03:06:08;;;;;;;8.75;4.53;;;10.60;95.70;;;;;;5033077;28;20107;-72
2023/04/28 03:08:34;;;;;;;9.80;5.05;;;10.60;95.80;;;;;;5039535;28;20025;-72
2023/04/28 03:11:00;;;;;;;10.52;4.70;;;10.60;95.80;;;;;;5038583;28;20087;-72
2023/04/28 03:13:26;;;;;;;9.70;4.93;;;10.60;95.80;;;;;;5038824;28;20021;-72
2023/04/28 03:15:51;;;;;;;13.65;4.85;;;10.60;95.80;;;;;;5040085;28;20385;-72
2023/04/28 03:18:17;;;;;;;12.02;5.60;;;10.60;96.00;;;;;;5041410;28;20025;-72
2023/04/28 03:20:43;;;;;;;14.30;5.20;;;10.50;96.00;;;;;;5038549;28;20041;-72
2023/04/28 03:23:09;;;;;;;11.43;4.63;;;10.50;96.20;;;;;;5038470;28;20031;-72
2023/04/28 03:25:35;;;;;;;13.55;5.70;;;10.40;96.30;;;;;;5038360;28;20071;-72
2023/04/28 03:28:00;;;;;;;10.95;4.68;;;10.50;96.30;;;;;;5041283;28;20102;-72
2023/04/28 03:30:26;;;;;;;9.93;4.85;;;10.50;96.40;;;;;;5039548;28;20044;-73
2023/04/28 03:32:52;;;;;;;10.90;4.78;;;10.50;96.50;;;;;;5040299;28;20504;-72
2023/04/28 03:35:17;;;;;;;10.85;5.07;;;10.50;96.70;;;;;;5040545;28;20025;-72
2023/04/28 03:37:43;;;;;;;11.32;4.68;;;10.50;96.70;;;;;;5038715;28;20528;-72
2023/04/28 03:40:09;;;;;;;14.50;5.40;;;10.50;96.70;;;;;;5041436;28;20025;-72
2023/04/28 03:42:35;;;;;;;10.20;4.88;;;10.50;96.60;;;;;;5038449;28;20021;-72
2023/04/28 03:45:00;;;;;;;9.65;5.18;;;10.60;96.70;;;;;;5038255;28;20018;-73
2023/04/28 03:47:27;;;;;;;10.13;4.95;;;10.50;96.60;;;;;;5038104;28;20025;-72
2023/04/28 03:49:52;;;;;;;9.15;4.68;;;10.60;96.70;;;;;;5039585;28;20025;-72
2023/04/28 03:52:18;;;;;;;11.05;6.00;;;10.60;96.60;;;;;;5040844;28;20025;-72
2023/04/28 03:54:43;;;;;;;11.73;4.95;;;10.50;96.60;;;;;;5037836;28;20029;-72
2023/04/28 03:57:09;;;;;;;10.65;5.00;;;10.60;96.70;;;;;;5037792;28;20043;-72
2023/04/28 03:59:35;;;;;;;12.60;5.65;;;10.50;97.10;;;;;;5037929;28;20029;-72
2023/04/28 04:02:00;;;;;;;11.55;5.13;;;10.60;97.50;;;;;;5040707;28;21409;-73
2023/04/28 04:04:26;;;;;;;14.07;5.28;;;10.60;97.40;;;;;;5039315;28;20121;-72
2023/04/28 04:06:51;;;;;;;10.25;5.35;;;10.60;97.30;;;;;;5037149;28;20389;-72
2023/04/28 04:09:17;;;;;;;11.07;5.10;;;10.70;97.10;;;;;;5037529;28;20088;-71
2023/04/28 04:11:42;;;;;;;10.60;5.03;;;10.60;97.00;;;;;;5037399;28;20639;-71
2023/04/28 04:14:08;;;;;;;11.73;5.20;;;10.70;97.10;;;;;;5038339;28;20033;-71
2023/04/28 04:16:35;;;;;;;12.35;5.05;;;10.70;97.20;;;;;;5047791;28;20112;-74
2023/04/28 04:19:00;;;;;;;13.32;6.05;;;10.70;97.10;;;;;;5049169;28;20020;-73
2023/04/28 04:21:26;;;;;;;13.82;4.82;;;10.70;97.00;;;;;;5048317;28;20433;-71
2023/04/28 04:23:52;;;;;;;10.60;5.20;;;10.70;96.90;;;;;;5036789;28;20029;-72
2023/04/28 04:26:18;;;;;;;12.85;6.20;;;10.70;96.90;;;;;;5047746;28;20083;-72
2023/04/28 04:28:43;;;;;;;13.40;5.35;;;10.70;97.00;;;;;;5022693;28;20128;-72
2023/04/28 04:31:09;;;;;;;12.02;5.20;;;10.70;96.90;;;;;;5028975;28;20041;-72
2023/04/28 04:33:36;;;;;;;12.90;5.43;;;10.70;97.00;;;;;;5032161;28;20025;-72
2023/04/28 04:36:03;;;;;;;13.40;5.72;;;10.80;97.00;;;;;;5031969;28;20025;-72
2023/04/28 04:38:29;;;;;;;12.68;5.55;;;10.80;96.90;;;;;;5031205;28;20021;-72
2023/04/28 04:40:55;;;;;;;13.15;5.25;;;10.80;97.00;;;;;;5032134;28;20029;-72
2023/04/28 04:43:21;;;;;;;12.23;5.22;;;10.80;97.00;;;;;;5032552;28;20454;-73
2023/04/28 04:45:46;;;;;;;12.55;5.10;;;10.90;97.00;;;;;;5032650;28;20028;-72
2023/04/28 04:48:12;;;;;;;14.50;5.72;;;10.80;96.90;;;;;;5029294;28;20616;-72
2023/04/28 04:50:38;;;;;;;11.05;5.47;;;10.90;96.90;;;;;;5027096;28;20121;-72
2023/04/28 04:53:03;;;;;;;11.30;5.35;;;10.90;96.90;;;;;;5032969;28;20040;-72
2023/04/28 04:55:29;;;;;;;13.43;5.63;;;10.90;97.00;;;;;;5043029;28;20035;-71
2023/04/28 04:57:55;;;;;;;15.25;6.10;;;10.90;97.80;;;;;;5039181;28;20057;-68
2023/04/28 05:00:20;;;;;;;13.23;6.07;;;10.60;99.50;;;;;;5049635;28;20380;-70
2023/04/28 05:02:46;;;;;;;14.40;6.72;;;10.10;99.90;;;;;;5037062;28;20074;-68
2023/04/28 05:05:11;;;;;;;16.17;6.93;;;9.70;99.90;;;;;;5045128;28;20410;-69
2023/04/28 05:07:37;;;;;;;17.42;7.95;;;9.40;99.90;;;;;;5043775;28;20033;-69
2023/04/28 05:10:03;;;;;;;14.27;7.20;;;9.10;99.90;;;;;;5037652;28;20041;-69
2023/04/28 05:12:28;;;;;;;16.67;7.00;;;8.90;99.90;;;;;;5049263;28;20024;-69
2023/04/28 05:14:54;;;;;;;19.13;8.27;;;8.70;99.90;;;;;;5037826;28;20025;-70
2023/04/28 05:17:20;;;;;;;17.70;8.73;;;8.50;99.90;;;;;;5043549;28;20521;-69
2023/04/28 05:19:45;;;;;;;20.55;10.15;;;8.30;99.90;;;;;;5034486;28;20086;-70
2023/04/28 05:22:11;;;;;;;22.02;10.02;;;8.30;99.90;;;;;;5048664;28;20529;-70
2023/04/28 05:24:36;;;;;;;19.35;9.73;;;8.30;99.90;;;;;;5035327;28;20094;-69
2023/04/28 05:27:02;;;;;;;19.35;9.40;;;8.30;99.90;;;;;;5046063;28;20052;-70
2023/04/28 05:29:28;;;;;;;18.58;9.25;;;8.30;99.90;;;;;;5042301;28;20401;-69
2023/04/28 05:31:53;;;;;;;20.42;8.65;;;8.40;99.90;;;;;;5038788;28;20032;-69
2023/04/28 05:34:19;;;;;;;20.40;8.93;;;8.40;99.90;;;;;;5035955;28;20029;-70
2023/04/28 05:36:45;;;;;;;19.75;9.40;;;8.50;99.90;;;;;;5041967;28;20505;-71
2023/04/28 05:39:10;;;;;;;19.70;9.85;;;8.50;99.90;;;;;;5041551;28;20029;-70
2023/04/28 05:41:36;;;;;;;19.45;9.80;;;8.60;99.90;;;;;;5052054;28;20029;-71
2023/04/28 05:44:02;;;;;;;18.55;9.38;;;8.70;99.90;;;;;;5037620;28;20029;-70
2023/04/28 05:46:27;;;;;;;19.80;9.25;;;8.80;99.90;;;;;;5048698;28;20021;-70
2023/04/28 05:48:53;;;;;;;21.10;8.80;;;8.90;99.90;;;;;;5037028;28;20071;-69
2023/04/28 05:51:19;;;;;;;18.45;8.98;;;9.00;99.90;;;;;;5042913;28;20511;-69
2023/04/28 05:53:47;;;;;;;18.52;8.77;;;9.20;99.90;;;;;;5044614;28;20102;-69
2023/04/28 05:56:14;;;;;;;21.35;9.23;;;9.30;99.90;;;;;;5035792;28;20674;-69
2023/04/28 05:58:39;;;;;;;20.63;9.50;;;9.30;99.90;;;;;;5048782;28;20025;-70
2023/04/28 06:01:05;;;;;;;20.88;9.50;;;9.40;99.90;;;;;;5035362;28;20111;-71
2023/04/28 06:03:31;;;;;;;17.65;9.20;;;9.50;99.90;;;;;;5035155;28;20021;-71
2023/04/28 06:05:56;;;;;;;19.77;8.65;;;9.60;99.90;;;;;;5034839;28;20037;-70
2023/04/28 06:08:22;;;;;;;20.80;9.93;;;9.60;99.90;;;;;;5036262;28;20041;-71
2023/04/28 06:10:51;;;;;;;20.27;9.18;;;9.70;99.90;;;;;;5036322;28;20029;-72
2023/04/28 06:13:16;;;;;;;19.15;9.27;;;9.80;99.90;;;;;;5043520;28;20025;-71
2023/04/28 06:15:42;;;;;;;22.00;10.07;;;9.90;99.90;;;;;;5043641;28;20128;-71
2023/04/28 06:18:08;;;;;;;19.85;9.93;;;10.00;99.90;;;;;;5035229;28;20034;-71
2023/04/28 06:20:34;;;;;;;20.45;8.43;;;10.00;99.90;;;;;;5039110;28;20030;-71
2023/04/28 06:23:00;;;;;;;18.80;9.13;;;10.10;99.90;;;;;;5045434;28;20078;-70
2023/04/28 06:25:26;;;;;;;20.35;9.35;;;10.20;99.90;;;;;;5041713;28;20025;-71
2023/04/28 06:27:55;;;;;;;16.65;8.35;;;10.20;99.90;;;;;;5038768;28;20042;-72
2023/04/28 06:30:22;;;;;;;19.05;8.88;;;10.30;99.90;;;;;;5048017;28;20040;-69
2023/04/28 06:32:48;;;;;;;20.42;9.13;;;10.30;99.90;;;;;;5034325;28;20033;-70
2023/04/28 06:35:15;;;;;;;19.55;8.50;;;10.40;99.90;;;;;;5040781;28;20492;-72
2023/04/28 06:37:42;;;;;;;18.63;8.50;;;10.40;99.90;;;;;;5052579;28;20037;-70
2023/04/28 06:40:08;;;;;;;17.90;9.00;;;10.40;99.90;;;;;;5039836;28;20036;-71
2023/04/28 06:42:34;;;;;;;18.05;8.35;;;10.50;99.90;;;;;;5051773;28;20027;-70
2023/04/28 06:44:59;;;;;;;18.45;9.23;;;10.60;99.90;;;;;;5041505;28;20416;-70
2023/04/28 06:47:25;;;;;;;19.73;9.00;;;10.70;99.90;;;;;;5050783;28;20016;-70
2023/04/28 06:49:51;;;;;;;18.23;8.40;;;10.70;99.90;;;;;;5038220;28;20044;-70
2023/04/28 06:52:16;;;;;;;21.85;9.32;;;10.90;99.90;;;;;;5052622;28;20025;-70
2023/04/28 06:54:42;;;;;;;18.02;8.82;;;11.00;99.90;;;;;;5037600;28;20029;-70
2023/04/28 06:57:08;;;;;;;19.00;8.57;;;11.00;99.90;;;;;;5049341;28;20029;-70
2023/04/28 06:59:34;;;;;;;18.10;8.95;;;11.10;99.90;;;;;;5044314;28;20025;-70
2023/04/28 07:02:00;;;;;;;17.88;8.10;;;11.10;99.90;;;;;;5039311;28;20034;-71
2023/04/28 07:04:26;;;;;;;18.77;9.70;;;11.20;99.90;;;;;;5051537;28;20036;-70
2023/04/28 07:06:51;;;;;;;16.73;8.00;;;11.20;99.90;;;;;;5054898;28;20466;-70
2023/04/28 07:09:17;;;;;;;21.58;9.50;;;11.30;99.90;;;;;;5045968;28;20045;-70
2023/04/28 07:11:44;;;;;;;18.67;9.48;;;11.30;99.90;;;;;;5046696;28;20036;-70
2023/04/28 07:14:09;;;;;;;16.73;8.15;;;11.40;99.90;;;;;;5039001;28;20581;-71
2023/04/28 07:16:35;;;;;;;16.55;7.80;;;11.40;99.90;;;;;;5039371;28;20115;-71
2023/04/28 07:19:01;;;;;;;15.80;8.35;;;11.50;99.90;;;;;;5048204;28;20381;-71
2023/04/28 07:21:27;;;;;;;17.90;8.50;;;11.50;99.90;;;;;;5044817;28;20112;-71
2023/04/28 07:23:55;;;;;;;18.85;8.85;;;11.50;99.90;;;;;;5041336;28;20032;-71
2023/04/28 07:26:22;;;;;;;17.73;8.18;;;11.50;99.90;;;;;;5051255;28;20128;-71
2023/04/28 07:28:47;;;;;;;18.92;9.45;;;11.50;99.90;;;;;;5033170;28;20041;-71
2023/04/28 07:31:13;;;;;;;20.05;8.25;;;11.60;99.90;;;;;;5034568;28;20434;-71
2023/04/28 07:33:38;;;;;;;18.33;9.02;;;11.50;99.90;;;;;;5045985;28;20029;-71
2023/04/28 07:36:04;;;;;;;19.25;9.20;;;11.60;99.90;;;;;;5039166;28;20029;-71
2023/04/28 07:38:30;;;;;;;18.60;9.35;;;11.60;99.90;;;;;;5050124;28;20108;-71
2023/04/28 07:40:56;;;;;;;23.15;10.43;;;11.60;99.90;;;;;;5038787;28;20056;-71
2023/04/28 07:43:21;;;;;;;18.67;9.07;;;11.60;99.90;;;;;;5045385;28;20159;-71
2023/04/28 07:45:48;;;;;;;18.55;8.70;;;11.70;99.90;;;;;;5045501;28;20498;-71
2023/04/28 07:48:14;;;;;;;19.67;9.63;;;11.70;99.90;;;;;;5034777;28;20026;-70
2023/04/28 07:50:40;;;;;;;18.48;9.52;;;11.70;99.90;;;;;;5040238;28;20041;-70
2023/04/28 07:53:05;;;;;;;17.92;9.73;;;11.70;99.90;;;;;;5047361;28;20552;-71
2023/04/28 07:55:31;;;;;;;21.20;9.57;;;11.60;99.90;;;;;;5044932;28;20112;-70
2023/04/28 07:57:57;;;;;;;21.83;11.20;;;11.60;99.90;;;;;;5040163;28;20029;-69
2023/04/28 08:00:23;;;;;;;17.02;8.98;;;11.60;99.90;;;;;;5049676;28;20029;-69
2023/04/28 08:02:49;;;;;;;19.60;10.60;;;11.40;99.90;;;;;;5038416;28;20025;-68
2023/04/28 08:05:15;;;;;;;19.98;10.70;;;11.30;99.90;;;;;;5045624;28;20031;-68
2023/04/28 08:07:42;;;;;;;21.30;10.85;;;11.20;99.90;;;;;;5045830;28;20104;-69
2023/04/28 08:10:09;;;;;;;20.95;10.93;;;11.10;99.90;;;;;;5038292;28;20180;-69
2023/04/28 08:12:35;;;;;;;19.52;11.18;;;11.00;99.90;;;;;;5049965;28;20366;-70
2023/04/28 08:15:01;;;;;;;26.25;11.57;;;10.90;99.90;;;;;;5038086;28;20025;-69
2023/04/28 08:17:26;;;;;;;22.58;10.48;;;10.80;99.90;;;;;;5044986;28;20053;-69
2023/04/28 08:19:52;;;;;;;24.10;11.82;;;10.80;99.90;;;;;;5040223;28;20049;-69
2023/04/28 08:22:17;;;;;;;25.80;12.60;;;10.80;99.90;;;;;;5041976;28;20084;-69
2023/04/28 08:24:43;;;;;;;22.75;11.25;;;10.80;99.90;;;;;;5046611;28;20029;-69
2023/04/28 08:27:08;;;;;;;24.85;11.90;;;10.90;99.90;;;;;;5046272;28;20543;-69
2023/04/28 08:29:34;;;;;;;21.08;11.02;;;10.90;99.90;;;;;;5044132;28;20500;-70
2023/04/28 08:32:05;;;;;;;21.38;10.70;;;11.00;99.90;;;;;;5038685;28;20033;-70
2023/04/28 08:34:31;;;;;;;22.08;12.25;;;11.00;99.90;;;;;;5049903;28;20032;-70
2023/04/28 08:36:57;;;;;;;21.85;11.43;;;11.10;99.90;;;;;;5036339;28;20025;-71
2023/04/28 08:39:25;;;;;;;25.33;13.50;;;11.20;99.90;;;;;;5042606;28;20028;-70
2023/04/28 08:41:51;;;;;;;29.08;15.98;;;11.10;99.90;;;;;;5039834;28;20433;-72
2023/04/28 08:44:17;;;;;;;23.40;13.02;;;11.20;99.90;;;;;;5049781;28;20083;-73
2023/04/28 08:46:44;;;;;;;26.30;13.40;;;11.30;99.90;;;;;;5049035;28;20026;-70
2023/04/28 08:49:15;;;;;;;24.00;12.60;;;11.40;99.90;;;;;;5034623;28;20090;-70
2023/04/28 08:51:48;;;;;;;24.15;12.95;;;11.50;99.90;;;;;;5044548;28;20033;-73
2023/04/28 08:54:18;;;;;;;27.02;14.70;;;11.70;99.90;;;;;;5036414;28;20485;-70
2023/04/28 08:56:45;;;;;;;26.00;13.98;;;11.80;99.90;;;;;;5035206;28;20518;-71
2023/04/28 08:59:14;;;;;;;26.00;14.25;;;11.90;99.90;;;;;;5035432;28;20026;-70
2023/04/28 09:01:40;;;;;;;27.85;14.85;;;12.00;99.90;;;;;;5044107;28;20037;-70
2023/04/28 09:04:05;;;;;;;27.02;13.95;;;12.20;99.90;;;;;;5037660;28;20489;-70
2023/04/28 09:06:36;;;;;;;24.73;13.45;;;12.40;99.90;;;;;;5023139;28;20128;-70
2023/04/28 09:09:37;;;;;;;25.17;14.35;;;12.70;99.90;;;;;;5046218;28;20021;-70
2023/04/28 09:12:03;;;;;;;26.20;15.32;;;12.90;99.90;;;;;;5025129;28;20136;-71
2023/04/28 09:14:34;;;;;;;27.60;16.25;;;13.00;99.90;;;;;;5028300;28;20049;-70
2023/04/28 09:17:10;;;;;;;26.48;15.25;;;13.00;99.90;;;;;;5038648;28;20465;-70
2023/04/28 09:19:38;;;;;;;26.17;14.32;;;13.10;99.90;;;;;;5039381;28;20056;-70
2023/04/28 09:22:05;;;;;;;27.65;16.73;;;13.20;99.90;;;;;;5032767;28;20520;-72
2023/04/28 09:24:43;;;;;;;25.02;14.68;;;13.40;99.90;;;;;;5046810;28;20026;-71
2023/04/28 09:27:10;;;;;;;25.38;14.77;;;13.40;99.90;;;;;;5050683;28;20098;-70
2023/04/28 09:29:51;;;;;;;30.65;16.42;;;13.40;99.90;;;;;;5037458;28;20068;-70
2023/04/28 09:32:19;;;;;;;25.77;15.75;;;13.40;99.90;;;;;;5036490;28;20063;-71
2023/04/28 09:34:53;;;;;;;25.65;16.25;;;13.50;99.90;;;;;;5038131;28;20028;-71
2023/04/28 09:37:23;;;;;;;25.52;14.73;;;13.50;99.90;;;;;;5040480;28;20079;-70
2023/04/28 09:39:53;;;;;;;30.02;17.35;;;13.70;99.90;;;;;;5042075;28;20496;-71
2023/04/28 09:42:41;;;;;;;24.98;16.17;;;13.70;99.90;;;;;;5051605;28;20078;-70
2023/04/28 09:45:14;;;;;;;26.70;16.33;;;13.70;99.90;;;;;;5039012;28;20128;-70
2023/04/28 09:47:45;;;;;;;25.35;15.63;;;13.70;99.90;;;;;;5040349;28;20032;-69
2023/04/28 09:50:15;;;;;;;29.13;18.83;;;13.70;99.90;;;;;;5032950;28;20100;-69
2023/04/28 09:52:43;;;;;;;27.38;17.13;;;13.70;99.90;;;;;;5029249;28;20546;-69
2023/04/28 09:55:11;;;;;;;26.13;16.17;;;13.80;99.90;;;;;;5043763;28;20040;-70
2023/04/28 09:57:37;;;;;;;25.20;15.63;;;13.90;99.90;;;;;;5027902;28;20025;-70
2023/04/28 10:00:05;;;;;;;25.38;15.07;;;14.10;99.90;;;;;;5046421;28;20381;-69
2023/04/28 10:02:32;;;;;;;22.85;14.15;;;14.20;99.90;;;;;;5032512;28;20041;-69
2023/04/28 10:04:59;;;;;;;24.23;14.77;;;14.30;99.90;;;;;;5036819;28;20049;-69
2023/04/28 10:07:26;;;;;;;21.38;12.63;;;14.40;99.90;;;;;;5042154;28;20096;-69
2023/04/28 10:09:52;;;;;;;24.17;15.35;;;14.30;99.90;;;;;;5033601;28;20045;-69
2023/04/28 10:12:22;;;;;;;25.67;15.30;;;14.20;99.90;;;;;;5036094;28;20080;-68
2023/04/28 10:14:49;;;;;;;24.73;15.90;;;14.20;99.90;;;;;;5038036;28;20025;-68
2023/04/28 10:17:15;;;;;;;23.38;14.55;;;14.30;99.90;;;;;;5044267;28;20037;-68
2023/04/28 10:19:43;;;;;;;27.73;17.65;;;14.30;99.90;;;;;;5044057;28;20045;-69
2023/04/28 10:22:21;;;;;;;25.13;15.75;;;14.30;99.90;;;;;;5051061;28;20040;-69
2023/04/28 10:25:27;;;;;;;23.67;14.55;;;14.10;99.90;;;;;;5039673;28;20020;-68
2023/04/28 10:27:53;;;;;;;23.88;15.32;;;14.10;99.90;;;;;;5042674;28;20045;-69
2023/04/28 10:30:23;;;;;;;28.02;16.15;;;14.10;99.90;;;;;;5037709;28;20402;-69
2023/04/28 10:33:08;;;;;;;27.73;16.50;;;14.00;99.90;;;;;;5050586;28;20108;-69
2023/04/28 10:35:35;;;;;;;31.48;19.52;;;14.00;99.90;;;;;;5046532;28;20112;-68
2023/04/28 10:38:15;;;;;;;27.92;17.13;;;13.90;99.90;;;;;;5040727;28;20440;-69
2023/04/28 10:40:44;;;;;;;36.15;23.10;;;14.00;99.90;;;;;;5022678;28;20166;-69
2023/04/28 10:43:29;;;;;;;31.48;19.33;;;13.90;99.90;;;;;;5048925;28;20048;-70
2023/04/28 10:45:59;;;;;;;37.50;23.48;;;13.80;99.90;;;;;;5041772;28;20121;-68
2023/04/28 10:48:25;;;;;;;39.45;24.33;;;13.70;99.90;;;;;;5033779;28;20033;-69
2023/04/28 10:53:43;;;;;;;37.80;23.48;;;13.60;99.90;;;;;;5044731;28;20120;-68
2023/04/28 10:56:26;;;;;;;38.00;23.40;;;13.50;99.90;;;;;;5048453;28;20096;-69
2023/04/28 10:58:56;;;;;;;34.05;19.48;;;13.60;99.90;;;;;;5035704;28;20035;-68
2023/04/28 11:01:30;;;;;;;34.88;22.45;;;13.70;99.90;;;;;;5041731;28;20037;-69
2023/04/28 11:04:11;;;;;;;34.72;20.52;;;13.80;99.90;;;;;;5035748;28;20038;-68
2023/04/28 11:06:41;;;;;;;32.92;18.85;;;14.10;99.90;;;;;;5045785;28;20576;-68
2023/04/28 11:09:19;;;;;;;26.38;14.57;;;14.20;99.90;;;;;;5047463;28;20107;-69
2023/04/28 11:11:50;;;;;;;36.33;21.95;;;14.20;99.90;;;;;;5047116;28;20091;-69
2023/04/28 11:14:16;;;;;;;38.35;22.05;;;14.20;99.90;;;;;;5038094;28;20060;-68
2023/04/28 11:17:02;;;;;;;31.98;18.98;;;14.20;99.90;;;;;;5049956;28;20026;-68
2023/04/28 11:19:50;;;;;;;28.85;17.45;;;14.30;99.90;;;;;;5034403;28;20033;-69
2023/04/28 11:22:17;;;;;;;29.63;15.77;;;14.30;99.90;;;;;;5020677;28;20038;-69
2023/04/28 11:25:00;;;;;;;23.13;11.32;;;14.30;99.90;;;;;;5050287;28;20029;-68
2023/04/28 11:27:27;;;;;;;17.25;7.70;;;14.20;99.90;;;;;;5042991;28;20045;-69
2023/04/28 11:29:53;;;;;;;14.90;6.80;;;14.10;99.90;;;;;;5047993;28;20063;-69
2023/04/28 11:32:29;;;;;;;19.73;8.60;;;14.00;99.90;;;;;;5036863;28;20469;-69
2023/04/28 11:34:55;;;;;;;11.57;4.85;;;14.00;99.90;;;;;;5043932;28;20033;-69
2023/04/28 11:37:22;;;;;;;14.95;6.70;;;14.00;99.90;;;;;;5042111;28;20052;-69
2023/04/28 11:39:48;;;;;;;18.73;6.90;;;14.00;99.90;;;;;;5041384;28;20094;-70
2023/04/28 11:42:15;;;;;;;19.95;8.23;;;14.10;99.90;;;;;;5037947;28;20025;-70
2023/04/28 11:44:50;;;;;;;25.63;10.52;;;14.00;99.90;;;;;;5024594;28;20067;-69
2023/04/28 11:47:28;;;;;;;26.23;10.15;;;13.90;99.90;;;;;;5039782;28;20029;-69
2023/04/28 11:49:54;;;;;;;15.15;4.85;;;13.80;99.90;;;;;;5035604;28;20581;-69
2023/04/28 11:52:20;;;;;;;15.05;5.22;;;13.90;99.90;;;;;;5034477;28;20108;-70
2023/04/28 11:54:57;;;;;;;20.80;8.57;;;13.90;99.90;;;;;;5051897;28;20104;-70
2023/04/28 11:57:23;;;;;;;18.92;7.28;;;13.90;99.90;;;;;;5044559;28;20429;-70
2023/04/28 11:59:49;;;;;;;14.52;6.22;;;14.00;99.90;;;;;;5047070;28;20028;-69
2023/04/28 12:02:23;;;;;;;13.98;5.68;;;14.10;99.90;;;;;;5045190;28;20032;-70
2023/04/28 12:04:49;;;;;;;13.70;6.60;;;14.10;99.90;;;;;;5023062;28;20539;-71
2023/04/28 12:07:17;;;;;;;16.27;6.03;;;14.00;99.90;;;;;;5045212;28;20025;-70
2023/04/28 12:10:09;;;;;;;16.00;5.50;;;14.10;99.90;;;;;;5045806;28;20037;-70
2023/04/28 12:12:35;;;;;;;;;;;14.20;99.90;;;;;;5036477;28;20029;-71
2023/04/28 12:15:05;;;;;;;19.90;8.48;;;14.20;99.90;;;;;;5046794;28;19955;-70
2023/04/28 12:17:41;;;;;;;17.90;7.03;;;14.10;99.90;;;;;;5043843;28;20086;-70
2023/04/28 12:20:10;;;;;;;22.85;7.78;;;14.20;99.90;;;;;;5052241;28;20029;-70
2023/04/28 12:22:47;;;;;;;20.92;9.15;;;14.20;99.90;;;;;;5035995;28;20029;-70
2023/04/28 12:25:19;;;;;;;20.80;7.10;;;14.30;99.90;;;;;;5043812;28;20037;-71
2023/04/28 12:28:02;;;;;;;20.88;7.28;;;14.20;99.90;;;;;;5041019;28;20088;-71
2023/04/28 12:30:29;;;;;;;20.08;7.65;;;14.10;99.90;;;;;;5051401;28;20098;-70
2023/04/28 12:32:55;;;;;;;21.25;7.53;;;14.20;99.90;;;;;;5047547;28;20022;-72
2023/04/28 12:35:22;;;;;;;22.88;8.75;;;14.20;99.90;;;;;;5042489;28;20036;-71
2023/04/28 12:37:48;;;;;;;23.38;8.50;;;14.20;99.90;;;;;;5040482;28;20129;-70
2023/04/28 12:40:13;;;;;;;24.60;7.68;;;14.20;99.90;;;;;;5049689;28;20119;-71